createdAt,value
2019-03-16T00:00:05.998Z,90.19
2019-03-16T00:05:13.211Z,90.29
2019-03-16T00:10:20.231Z,90.45
2019-03-16T00:15:25.475Z,90.45
2019-03-16T00:20:30.825Z,90.66
2019-03-16T00:25:36.030Z,90.83
2019-03-16T00:30:41.317Z,91.01
2019-03-16T00:35:47.236Z,91.13
2019-03-16T00:40:53.217Z,91.12
2019-03-16T00:45:58.928Z,91.29
2019-03-16T00:51:04.130Z,91.27
2019-03-16T00:56:09.418Z,91.45
2019-03-16T01:01:17.232Z,91.44
2019-03-16T01:06:23.070Z,91.98
2019-03-16T01:11:28.666Z,92.23
2019-03-16T01:16:33.928Z,92.27
2019-03-16T01:21:39.669Z,91.31
2019-03-16T01:26:44.877Z,89.95
2019-03-16T01:31:50.296Z,89.28
2019-03-16T01:36:55.933Z,88.81
2019-03-16T01:42:01.226Z,88.38
2019-03-16T01:47:06.495Z,88.79
2019-03-16T01:52:11.739Z,89.36
2019-03-16T01:57:17.391Z,90.03
2019-03-16T02:02:23.021Z,90.45
2019-03-16T02:07:28.312Z,90.50
2019-03-16T02:12:33.526Z,90.98
2019-03-16T02:17:38.795Z,91.36
2019-03-16T02:22:44.486Z,91.41
2019-03-16T02:27:49.696Z,91.68
2019-03-16T02:33:11.042Z,91.79
2019-03-16T02:38:02.360Z,91.88
2019-03-16T02:43:07.599Z,91.82
2019-03-16T02:48:12.879Z,91.63
2019-03-16T02:53:18.089Z,91.76
2019-03-16T02:58:23.334Z,91.93
2019-03-16T03:03:30.212Z,92.03
2019-03-16T03:08:35.465Z,92.22
2019-03-16T03:13:40.796Z,91.98
2019-03-16T03:18:49.325Z,92.17
2019-03-16T03:23:52.980Z,92.40
2019-03-16T03:28:58.533Z,92.29
2019-03-16T03:34:03.967Z,92.38
2019-03-16T03:39:11.673Z,92.38
2019-03-16T03:44:16.933Z,92.06
2019-03-16T03:49:22.588Z,92.27
2019-03-16T03:54:28.202Z,92.04
2019-03-16T03:59:33.676Z,92.14
2019-03-16T04:04:39.040Z,92.03
2019-03-16T04:09:44.252Z,92.15
2019-03-16T04:14:49.465Z,92.07
2019-03-16T04:19:54.845Z,92.02
2019-03-16T04:25:00.482Z,91.85
2019-03-16T04:30:05.805Z,91.69
2019-03-16T04:35:12.186Z,91.51
2019-03-16T04:40:17.472Z,91.71
2019-03-16T04:45:22.678Z,91.64
2019-03-16T04:50:28.137Z,91.49
2019-03-16T04:55:33.543Z,91.60
2019-03-16T05:00:38.788Z,91.48
2019-03-16T05:05:44.057Z,91.26
2019-03-16T05:10:50.902Z,91.35
2019-03-16T05:15:56.236Z,91.38
2019-03-16T05:21:01.513Z,91.47
2019-03-16T05:26:06.737Z,91.78
2019-03-16T05:31:11.999Z,92.13
2019-03-16T05:36:17.302Z,91.87
2019-03-16T05:47:32.652Z,92.32
2019-03-16T05:52:37.998Z,92.36
2019-03-16T05:57:43.359Z,92.17
2019-03-16T06:02:48.575Z,92.21
2019-03-16T06:07:53.931Z,92.10
2019-03-16T06:12:59.183Z,91.92
2019-03-16T06:18:04.405Z,91.67
2019-03-16T06:23:09.647Z,91.71
2019-03-16T06:28:14.942Z,91.76
2019-03-16T06:33:20.542Z,92.00
2019-03-16T06:38:25.877Z,91.37
2019-03-16T06:43:31.156Z,91.64
2019-03-16T06:48:36.592Z,91.39
2019-03-16T06:53:41.851Z,91.44
2019-03-16T06:58:47.738Z,92.13
2019-03-16T07:03:52.977Z,92.47
2019-03-16T07:08:58.182Z,92.60
2019-03-16T07:14:04.127Z,92.10
2019-03-16T07:19:09.411Z,91.50
2019-03-16T07:24:14.635Z,91.69
2019-03-16T07:29:19.823Z,91.15
2019-03-16T07:34:25.111Z,91.05
2019-03-16T07:39:30.344Z,90.75
2019-03-16T07:50:40.304Z,90.38
2019-03-16T07:55:45.579Z,90.80
2019-03-16T08:00:51.855Z,90.48
2019-03-16T08:05:57.215Z,90.71
2019-03-16T08:11:02.522Z,90.52
2019-03-16T08:16:07.912Z,90.01
2019-03-16T08:21:13.212Z,90.39
2019-03-16T08:26:18.473Z,89.94
2019-03-16T08:31:24.051Z,89.61
2019-03-16T08:36:29.596Z,89.52
2019-03-16T08:41:34.975Z,89.26
2019-03-16T08:46:40.607Z,89.10
2019-03-16T08:51:46.025Z,89.44
2019-03-16T08:56:51.578Z,89.38
2019-03-16T09:01:57.852Z,89.09
2019-03-16T09:07:03.308Z,89.46
2019-03-16T09:12:10.564Z,88.91
2019-03-16T09:17:17.674Z,89.13
2019-03-16T09:22:22.984Z,88.80
2019-03-16T09:27:31.520Z,89.18
2019-03-16T09:32:35.379Z,88.53
2019-03-16T09:37:40.770Z,88.95
2019-03-16T09:42:46.373Z,87.99
2019-03-16T09:47:51.862Z,87.58
2019-03-16T09:53:00.262Z,87.91
2019-03-16T09:58:05.743Z,87.42
2019-03-16T10:03:11.098Z,86.36
2019-03-16T10:08:19.020Z,86.14
2019-03-16T10:13:23.529Z,85.82
2019-03-16T10:18:29.183Z,85.54
2019-03-16T10:23:34.582Z,85.55
2019-03-16T10:28:43.805Z,86.08
2019-03-16T10:33:47.240Z,85.99
2019-03-16T10:38:52.802Z,86.07
2019-03-16T10:43:58.190Z,85.75
2019-03-16T10:49:03.643Z,85.36
2019-03-16T10:54:11.192Z,84.17
2019-03-16T10:59:16.735Z,84.66
2019-03-16T11:04:22.096Z,83.61
2019-03-16T11:09:28.372Z,82.94
2019-03-16T11:14:36.089Z,83.82
2019-03-16T11:19:41.305Z,83.35
2019-03-16T11:24:46.653Z,83.04
2019-03-16T11:29:51.963Z,82.04
2019-03-16T11:34:57.209Z,82.67
2019-03-16T11:40:02.511Z,82.24
2019-03-16T11:45:07.929Z,82.76
2019-03-16T11:50:13.957Z,80.50
2019-03-16T11:55:19.468Z,80.88
2019-03-16T12:00:24.912Z,79.82
2019-03-16T12:05:30.282Z,79.82
2019-03-16T12:10:36.948Z,78.95
2019-03-16T12:15:42.345Z,78.27
2019-03-16T12:20:47.573Z,76.82
2019-03-16T12:25:53.149Z,77.45
2019-03-16T12:30:58.583Z,77.37
2019-03-16T12:36:03.854Z,76.28
2019-03-16T12:41:09.180Z,76.03
2019-03-16T12:46:14.647Z,76.15
2019-03-16T12:51:21.816Z,75.97
2019-03-16T12:56:27.213Z,76.12
2019-03-16T13:01:32.592Z,75.67
2019-03-16T13:06:38.231Z,76.17
2019-03-16T13:11:43.567Z,76.53
2019-03-16T13:16:49.025Z,75.92
2019-03-16T13:21:54.277Z,77.21
2019-03-16T13:26:59.717Z,76.96
2019-03-16T13:32:04.985Z,76.88
2019-03-16T13:37:11.648Z,77.22
2019-03-16T13:42:18.108Z,78.31
2019-03-16T13:47:23.457Z,80.19
2019-03-16T13:52:30.361Z,80.14
2019-03-16T13:57:35.597Z,80.21
2019-03-16T14:02:41.250Z,80.12
2019-03-16T14:07:46.796Z,78.64
2019-03-16T14:12:52.242Z,79.21
2019-03-16T14:17:58.335Z,78.49
2019-03-16T14:23:05.696Z,78.72
2019-03-16T14:28:13.609Z,78.71
2019-03-16T14:33:20.694Z,78.57
2019-03-16T14:38:26.469Z,76.76
2019-03-16T14:43:33.599Z,77.14
2019-03-16T14:48:43.338Z,76.73
2019-03-16T14:53:49.371Z,76.38
2019-03-16T14:58:55.660Z,75.20
2019-03-16T15:04:01.037Z,74.27
2019-03-16T15:09:08.268Z,74.70
2019-03-16T15:14:21.617Z,74.49
2019-03-16T15:19:21.139Z,73.80
2019-03-16T15:24:27.152Z,73.62
2019-03-16T15:29:32.460Z,74.52
2019-03-16T15:34:37.802Z,74.65
2019-03-16T15:39:43.709Z,73.36
2019-03-16T15:44:49.648Z,73.66
2019-03-16T15:49:58.520Z,73.21
2019-03-16T15:55:03.156Z,73.77
2019-03-16T16:00:10.660Z,74.43
2019-03-16T16:05:16.115Z,74.11
2019-03-16T16:10:21.519Z,73.01
2019-03-16T16:15:27.072Z,73.30
2019-03-16T16:20:32.432Z,72.63
2019-03-16T16:25:38.525Z,73.27
2019-03-16T16:30:44.546Z,73.09
2019-03-16T16:35:50.029Z,72.97
2019-03-16T16:40:55.307Z,73.74
2019-03-16T16:46:00.543Z,72.22
2019-03-16T16:51:05.754Z,72.97
2019-03-16T16:56:11.020Z,72.13
2019-03-16T17:01:28.403Z,73.05
2019-03-16T17:06:23.329Z,72.88
2019-03-16T17:11:28.846Z,72.76
2019-03-16T17:16:34.566Z,72.42
2019-03-16T17:21:40.059Z,72.77
2019-03-16T17:26:45.318Z,72.71
2019-03-16T17:31:50.503Z,72.02
2019-03-16T17:36:55.712Z,72.42
2019-03-16T17:42:07.934Z,72.65
2019-03-16T17:47:13.333Z,72.41
2019-03-16T17:52:19.062Z,71.72
2019-03-16T17:57:24.464Z,71.90
2019-03-16T18:02:29.747Z,71.46
2019-03-16T18:07:35.428Z,71.35
2019-03-16T18:12:40.782Z,71.96
2019-03-16T18:17:46.073Z,71.71
2019-03-16T18:22:51.307Z,71.73
2019-03-16T18:27:56.698Z,71.93
2019-03-16T18:33:01.935Z,71.56
2019-03-16T18:38:07.226Z,70.52
2019-03-16T18:43:13.525Z,71.11
2019-03-16T18:48:18.802Z,70.59
2019-03-16T18:53:24.063Z,71.07
2019-03-16T18:58:37.237Z,71.26
2019-03-16T19:03:37.599Z,71.70
2019-03-16T19:08:42.930Z,71.64
2019-03-16T19:13:48.209Z,70.95
2019-03-16T19:18:53.544Z,70.84
2019-03-16T19:23:59.048Z,71.42
2019-03-16T19:29:05.308Z,71.29
2019-03-16T19:34:10.717Z,71.09
2019-03-16T19:39:17.057Z,71.57
2019-03-16T19:44:22.383Z,71.07
2019-03-16T19:49:27.996Z,71.67
2019-03-16T19:54:34.263Z,71.45
2019-03-16T19:59:39.454Z,71.86
2019-03-16T20:04:44.644Z,71.75
2019-03-16T20:09:49.911Z,71.42
2019-03-16T20:14:55.318Z,72.23
2019-03-16T20:20:02.824Z,71.80
2019-03-16T20:25:08.209Z,71.73
2019-03-16T20:30:14.542Z,71.50
2019-03-16T20:35:19.785Z,72.34
2019-03-16T20:40:25.094Z,72.27
2019-03-16T20:45:30.501Z,72.32
2019-03-16T20:50:36.110Z,72.75
2019-03-16T20:55:41.398Z,73.34
2019-03-16T21:00:46.587Z,73.21
2019-03-16T21:05:52.063Z,73.25
2019-03-16T21:10:59.466Z,73.80
2019-03-16T21:16:04.702Z,73.97
2019-03-16T21:21:10.037Z,73.59
2019-03-16T21:26:15.366Z,74.09
2019-03-16T21:31:20.572Z,74.35
2019-03-16T21:36:25.826Z,74.62
2019-03-16T21:41:32.083Z,74.58
2019-03-16T21:46:37.310Z,74.05
2019-03-16T21:51:43.515Z,74.37
2019-03-16T21:56:48.893Z,74.32
2019-03-16T22:01:54.395Z,74.52
2019-03-16T22:06:59.696Z,74.34
2019-03-16T22:12:05.631Z,74.53
2019-03-16T22:17:11.327Z,74.93
2019-03-16T22:22:16.604Z,74.45
2019-03-16T22:27:21.925Z,74.73
2019-03-16T22:32:27.132Z,74.15
2019-03-16T22:37:32.610Z,74.43
2019-03-16T22:42:38.009Z,73.70
2019-03-16T22:47:44.590Z,73.43
2019-03-16T22:52:49.902Z,74.13
2019-03-16T22:57:55.127Z,73.46
2019-03-16T23:03:00.369Z,72.99
2019-03-16T23:08:06.073Z,73.49
2019-03-16T23:13:11.618Z,72.92
2019-03-16T23:18:16.870Z,72.58
2019-03-16T23:23:22.324Z,72.89
2019-03-16T23:28:28.668Z,73.90
2019-03-16T23:33:34.386Z,73.26
2019-03-16T23:38:39.691Z,72.80
2019-03-16T23:43:44.975Z,72.42
2019-03-16T23:48:50.291Z,72.55
2019-03-16T23:53:55.744Z,73.23
2019-03-16T23:59:01.453Z,73.13
